createdAt,value
2022-08-02T00:00:33.584Z,16.78
2022-08-02T00:03:00.214Z,16.76
2022-08-02T00:05:27.175Z,16.73
2022-08-02T00:07:53.717Z,16.71
2022-08-02T00:10:20.435Z,16.67
2022-08-02T00:12:47.180Z,16.62
2022-08-02T00:15:16.029Z,16.55
2022-08-02T00:17:44.081Z,16.49
2022-08-02T00:20:11.404Z,16.43
2022-08-02T00:22:38.153Z,16.37
2022-08-02T00:25:05.523Z,16.32
2022-08-02T00:27:32.053Z,16.28
2022-08-02T00:29:58.700Z,16.24
2022-08-02T00:32:25.339Z,16.20
2022-08-02T00:34:52.774Z,16.17
2022-08-02T00:37:19.757Z,16.15
2022-08-02T00:39:46.409Z,16.14
2022-08-02T00:42:15.245Z,16.09
2022-08-02T00:44:42.451Z,16.02
2022-08-02T00:47:09.339Z,15.98
2022-08-02T00:49:35.963Z,15.94
2022-08-02T00:52:03.405Z,15.90
2022-08-02T00:54:30.161Z,15.87
2022-08-02T00:56:56.676Z,15.83
2022-08-02T00:59:23.259Z,15.81
2022-08-02T01:01:55.766Z,15.78
2022-08-02T01:04:30.010Z,15.77
2022-08-02T01:06:59.881Z,15.76
2022-08-02T01:09:26.708Z,15.77
2022-08-02T01:11:53.458Z,15.76
2022-08-02T01:14:21.836Z,15.75
2022-08-02T01:17:06.887Z,15.73
2022-08-02T01:19:58.132Z,15.72
2022-08-02T01:23:01.560Z,15.71
2022-08-02T01:25:57.158Z,15.68
2022-08-02T01:28:42.544Z,15.67
2022-08-02T01:31:34.583Z,15.66
2022-08-02T01:34:06.143Z,15.66
2022-08-02T01:36:43.026Z,15.66
2022-08-02T01:39:26.895Z,15.68
2022-08-02T01:42:01.411Z,15.72
2022-08-02T01:44:31.879Z,15.74
2022-08-02T01:47:04.820Z,15.77
2022-08-02T01:49:34.308Z,15.79
2022-08-02T01:52:03.113Z,15.83
2022-08-02T01:54:32.995Z,15.86
2022-08-02T01:57:03.999Z,15.88
2022-08-02T01:59:31.249Z,15.92
2022-08-02T02:01:59.643Z,15.94
2022-08-02T02:04:29.299Z,15.98
2022-08-02T02:06:57.519Z,16.01
2022-08-02T02:09:28.683Z,16.04
2022-08-02T02:12:11.941Z,16.07
2022-08-02T02:14:42.767Z,16.07
2022-08-02T02:17:53.092Z,16.07
2022-08-02T02:20:08.762Z,16.10
2022-08-02T02:22:35.439Z,16.11
2022-08-02T02:25:02.189Z,16.13
2022-08-02T02:27:34.444Z,16.14
2022-08-02T02:30:06.449Z,16.15
2022-08-02T02:32:35.024Z,16.16
2022-08-02T02:35:03.490Z,16.18
2022-08-02T02:37:32.590Z,16.19
2022-08-02T02:39:59.949Z,16.22
2022-08-02T02:42:31.275Z,16.24
2022-08-02T02:45:00.327Z,16.27
2022-08-02T02:47:40.595Z,16.29
2022-08-02T02:50:09.182Z,16.32
2022-08-02T02:52:38.533Z,16.34
2022-08-02T02:55:06.828Z,16.37
2022-08-02T02:57:34.115Z,16.40
2022-08-02T03:00:02.064Z,16.41
2022-08-02T03:02:29.120Z,16.44
2022-08-02T03:04:58.267Z,16.46
2022-08-02T03:07:26.530Z,16.48
2022-08-02T03:09:54.355Z,16.49
2022-08-02T03:12:28.830Z,16.52
2022-08-02T03:15:02.478Z,16.54
2022-08-02T03:17:55.899Z,16.58
2022-08-02T03:20:22.662Z,16.62
2022-08-02T03:22:49.882Z,16.64
2022-08-02T03:25:17.960Z,16.64
2022-08-02T03:27:44.970Z,16.66
2022-08-02T03:30:13.407Z,16.68
2022-08-02T03:32:42.800Z,16.70
2022-08-02T03:35:12.068Z,16.70
2022-08-02T03:37:40.257Z,16.72
2022-08-02T03:40:08.878Z,16.73
2022-08-02T03:42:36.002Z,16.74
2022-08-02T03:45:08.407Z,16.73
2022-08-02T03:47:38.320Z,16.73
2022-08-02T03:50:07.591Z,16.74
2022-08-02T03:52:34.658Z,16.73
2022-08-02T03:55:01.539Z,16.73
2022-08-02T03:57:28.677Z,16.71
2022-08-02T03:59:55.426Z,16.73
2022-08-02T04:02:22.171Z,16.72
2022-08-02T04:04:48.797Z,16.74
2022-08-02T04:07:15.400Z,16.75
2022-08-02T04:10:02.065Z,16.76
2022-08-02T04:12:28.603Z,16.78
2022-08-02T04:14:55.346Z,16.80
2022-08-02T04:17:23.844Z,16.83
2022-08-02T04:19:54.978Z,16.85
2022-08-02T04:22:29.409Z,16.88
2022-08-02T04:25:02.044Z,16.92
2022-08-02T04:27:50.316Z,16.94
2022-08-02T04:30:18.183Z,16.98
2022-08-02T04:32:45.869Z,17.03
2022-08-02T04:35:20.855Z,17.10
2022-08-02T04:38:08.837Z,17.14
2022-08-02T04:40:36.354Z,17.19
2022-08-02T04:43:03.399Z,17.24
2022-08-02T04:45:30.986Z,17.30
2022-08-02T04:48:05.793Z,17.33
2022-08-02T04:50:33.863Z,17.36
2022-08-02T04:53:01.102Z,17.37
2022-08-02T04:55:28.414Z,17.41
2022-08-02T04:57:55.617Z,17.45
2022-08-02T05:00:22.637Z,17.51
2022-08-02T05:02:50.320Z,17.58
2022-08-02T05:05:17.179Z,17.62
2022-08-02T05:07:44.023Z,17.67
2022-08-02T05:10:11.320Z,17.68
2022-08-02T05:12:39.264Z,17.74
2022-08-02T05:15:06.745Z,17.82
2022-08-02T05:17:36.023Z,17.87
2022-08-02T05:20:02.765Z,17.91
2022-08-02T05:22:29.599Z,17.94
2022-08-02T05:24:56.118Z,17.95
2022-08-02T05:27:22.786Z,17.93
2022-08-02T05:29:51.109Z,17.92
2022-08-02T05:32:20.383Z,17.93
2022-08-02T05:34:50.625Z,17.94
2022-08-02T05:37:17.622Z,17.94
2022-08-02T05:39:55.332Z,17.95
2022-08-02T05:42:23.699Z,17.97
2022-08-02T05:44:50.705Z,17.97
2022-08-02T05:47:17.640Z,17.95
2022-08-02T05:49:44.384Z,17.95
2022-08-02T05:52:15.428Z,17.96
2022-08-02T05:54:48.318Z,17.98
2022-08-02T05:57:43.425Z,17.97
2022-08-02T06:00:13.308Z,18.00
2022-08-02T06:03:04.554Z,17.99
2022-08-02T06:05:41.161Z,18.00
2022-08-02T06:08:08.681Z,17.99
2022-08-02T06:10:38.275Z,18.02
2022-08-02T06:13:14.333Z,18.07
2022-08-02T06:15:52.963Z,18.12
2022-08-02T06:18:28.215Z,18.19
2022-08-02T06:20:58.630Z,18.23
2022-08-02T06:23:32.487Z,18.30
2022-08-02T06:26:03.842Z,18.37
2022-08-02T06:28:31.303Z,18.46
2022-08-02T06:30:59.101Z,18.55
2022-08-02T06:33:25.718Z,18.61
2022-08-02T06:36:22.268Z,18.65
2022-08-02T06:39:01.710Z,18.65
2022-08-02T06:41:31.219Z,18.66
2022-08-02T06:44:27.390Z,18.68
2022-08-02T06:47:10.853Z,18.75
2022-08-02T06:49:52.406Z,18.92
2022-08-02T06:52:30.557Z,19.08
2022-08-02T06:54:58.959Z,19.30
2022-08-02T06:57:26.008Z,19.54
2022-08-02T06:59:52.785Z,19.74
2022-08-02T07:02:19.634Z,20.01
2022-08-02T07:04:47.354Z,20.26
2022-08-02T07:07:13.967Z,20.56
2022-08-02T07:09:57.071Z,20.73
2022-08-02T07:12:27.732Z,20.97
2022-08-02T07:14:54.354Z,21.29
2022-08-02T07:17:21.105Z,21.61
2022-08-02T07:19:47.846Z,21.94
2022-08-02T07:22:15.036Z,22.17
2022-08-02T07:24:41.769Z,22.34
2022-08-02T07:27:11.624Z,22.53
2022-08-02T07:29:45.987Z,22.60
2022-08-02T07:32:25.354Z,22.83
2022-08-02T07:34:55.084Z,22.88
2022-08-02T07:37:35.305Z,22.87
2022-08-02T07:40:15.096Z,22.92
2022-08-02T07:42:47.014Z,23.01
2022-08-02T07:45:14.704Z,22.98
2022-08-02T07:47:43.587Z,22.96
2022-08-02T07:50:11.854Z,23.01
2022-08-02T07:52:39.312Z,23.37
2022-08-02T07:55:06.365Z,24.00
2022-08-02T07:57:33.010Z,24.95
2022-08-02T08:00:00.390Z,25.93
2022-08-02T08:02:27.009Z,26.53
2022-08-02T08:04:53.635Z,26.60
2022-08-02T08:07:20.811Z,26.35
2022-08-02T08:09:47.414Z,26.27
2022-08-02T08:12:14.634Z,26.14
2022-08-02T08:14:42.378Z,25.81
2022-08-02T08:17:09.181Z,25.75
2022-08-02T08:19:51.349Z,25.56
2022-08-02T08:22:18.775Z,25.58
2022-08-02T08:24:45.462Z,25.52
2022-08-02T08:27:11.964Z,25.52
2022-08-02T08:29:38.644Z,25.48
2022-08-02T08:32:05.872Z,25.37
2022-08-02T08:34:32.439Z,25.49
2022-08-02T08:36:59.349Z,25.68
2022-08-02T08:39:26.351Z,25.74
2022-08-02T08:41:53.080Z,25.88
2022-08-02T08:44:19.824Z,26.06
2022-08-02T08:46:49.290Z,26.22
2022-08-02T08:49:21.988Z,26.23
2022-08-02T08:51:51.332Z,26.34
2022-08-02T08:54:19.171Z,26.34
2022-08-02T08:56:46.543Z,26.20
2022-08-02T08:59:13.276Z,26.16
2022-08-02T09:01:50.009Z,26.16
2022-08-02T09:04:19.279Z,26.23
2022-08-02T09:06:45.830Z,26.17
2022-08-02T09:09:12.497Z,26.36
2022-08-02T09:11:39.144Z,26.69
2022-08-02T09:14:06.445Z,26.88
2022-08-02T09:16:37.901Z,26.88
2022-08-02T09:19:24.825Z,26.66
2022-08-02T09:22:02.225Z,26.53
2022-08-02T09:24:31.760Z,26.67
2022-08-02T09:26:58.551Z,26.40
2022-08-02T09:29:26.356Z,25.95
2022-08-02T09:32:03.069Z,25.53
2022-08-02T09:34:51.500Z,25.53
2022-08-02T09:37:29.196Z,25.80
2022-08-02T09:39:59.841Z,25.99
2022-08-02T09:42:30.729Z,26.28
2022-08-02T09:45:02.369Z,26.40
2022-08-02T09:47:31.075Z,26.36
2022-08-02T09:49:58.853Z,26.24
2022-08-02T09:52:37.038Z,26.14
2022-08-02T09:55:11.773Z,26.38
2022-08-02T09:57:38.861Z,26.76
2022-08-02T10:00:16.175Z,26.96
2022-08-02T10:03:19.338Z,26.77
2022-08-02T10:05:55.885Z,26.66
2022-08-02T10:08:25.464Z,26.48
2022-08-02T10:10:52.320Z,26.39
2022-08-02T10:13:20.173Z,26.37
2022-08-02T10:15:50.474Z,26.46
2022-08-02T10:18:37.118Z,26.55
2022-08-02T10:21:19.576Z,26.71
2022-08-02T10:23:48.970Z,26.60
2022-08-02T10:26:19.185Z,26.71
2022-08-02T10:28:50.158Z,27.07
2022-08-02T10:31:23.019Z,27.19
2022-08-02T10:33:52.848Z,27.04
2022-08-02T10:36:21.362Z,26.78
2022-08-02T10:38:48.100Z,26.70
2022-08-02T10:41:14.837Z,26.75
2022-08-02T10:43:44.214Z,26.64
2022-08-02T10:46:33.731Z,26.75
2022-08-02T10:52:01.937Z,26.98
2022-08-02T10:54:32.340Z,27.06
2022-08-02T10:57:01.350Z,26.98
2022-08-02T10:59:28.297Z,27.10
2022-08-02T11:02:00.877Z,27.06
2022-08-02T11:04:36.662Z,26.48
2022-08-02T11:07:20.654Z,26.10
2022-08-02T11:09:50.020Z,25.67
2022-08-02T11:12:19.171Z,25.60
2022-08-02T11:14:58.530Z,25.82
2022-08-02T11:17:25.476Z,25.94
2022-08-02T11:20:10.888Z,26.03
2022-08-02T11:22:42.062Z,26.50
2022-08-02T11:25:24.250Z,26.83
2022-08-02T11:28:08.726Z,26.80
2022-08-02T11:30:36.241Z,27.01
2022-08-02T11:33:03.806Z,27.22
2022-08-02T11:35:39.814Z,27.48
2022-08-02T11:38:18.076Z,27.33
2022-08-02T11:40:46.205Z,27.32
2022-08-02T11:43:24.892Z,27.02
2022-08-02T11:45:52.077Z,26.73
2022-08-02T11:48:38.617Z,26.67
2022-08-02T11:51:06.553Z,26.70
2022-08-02T11:53:51.615Z,26.71
2022-08-02T11:56:32.801Z,26.85
2022-08-02T11:59:08.863Z,26.93
2022-08-02T12:01:45.212Z,26.78
2022-08-02T12:04:17.281Z,26.69
2022-08-02T12:06:44.890Z,26.78
2022-08-02T12:09:18.811Z,27.09
2022-08-02T12:11:49.240Z,27.15
2022-08-02T12:14:15.960Z,26.80
2022-08-02T12:16:42.707Z,26.44
2022-08-02T12:19:09.354Z,26.30
2022-08-02T12:21:36.097Z,26.07
2022-08-02T12:24:02.809Z,25.99
2022-08-02T12:26:30.607Z,26.03
2022-08-02T12:29:00.878Z,26.02
2022-08-02T12:31:57.542Z,26.12
2022-08-02T12:34:31.501Z,26.39
2022-08-02T12:37:06.367Z,26.51
2022-08-02T12:39:42.486Z,26.68
2022-08-02T12:42:12.469Z,26.69
2022-08-02T12:44:51.317Z,26.47
2022-08-02T12:47:18.201Z,26.21
2022-08-02T12:50:12.431Z,26.11
2022-08-02T12:52:39.657Z,26.20
2022-08-02T12:55:25.226Z,26.34
2022-08-02T12:57:55.000Z,26.64
2022-08-02T13:00:40.340Z,26.84
2022-08-02T13:04:07.400Z,27.25
2022-08-02T13:05:57.317Z,27.79
2022-08-02T13:08:25.048Z,28.01
2022-08-02T13:10:51.550Z,27.75
2022-08-02T13:13:18.265Z,27.31
2022-08-02T13:15:48.858Z,26.83
2022-08-02T13:18:17.897Z,26.72
2022-08-02T13:20:45.771Z,26.77
2022-08-02T13:23:21.139Z,27.08
2022-08-02T13:25:52.858Z,27.49
2022-08-02T13:28:19.813Z,27.96
2022-08-02T13:30:46.966Z,28.34
2022-08-02T13:33:14.396Z,28.96
2022-08-02T13:35:42.104Z,29.32
2022-08-02T13:38:08.740Z,29.56
2022-08-02T13:41:02.076Z,29.83
2022-08-02T13:43:22.404Z,30.18
2022-08-02T13:45:49.503Z,30.32
2022-08-02T13:48:16.948Z,30.46
2022-08-02T13:50:45.110Z,30.63
2022-08-02T13:53:11.860Z,30.78
2022-08-02T13:55:38.508Z,31.14
2022-08-02T13:58:10.677Z,31.47
2022-08-02T14:00:37.416Z,31.75
2022-08-02T14:03:05.551Z,32.17
2022-08-02T14:05:46.904Z,32.17
2022-08-02T14:08:19.499Z,32.37
2022-08-02T14:10:50.035Z,32.33
2022-08-02T14:13:18.079Z,32.40
2022-08-02T14:15:45.132Z,32.29
2022-08-02T14:18:12.425Z,32.17
2022-08-02T14:20:39.038Z,32.15
2022-08-02T14:23:05.661Z,32.12
2022-08-02T14:25:32.656Z,32.36
2022-08-02T14:27:59.212Z,32.42
2022-08-02T14:30:25.762Z,32.64
2022-08-02T14:32:52.464Z,32.66
2022-08-02T14:35:19.311Z,32.46
2022-08-02T14:37:45.897Z,32.33
2022-08-02T14:40:31.171Z,32.21
2022-08-02T14:43:02.274Z,32.19
2022-08-02T14:45:36.608Z,32.54
2022-08-02T14:48:08.888Z,32.98
2022-08-02T14:50:35.455Z,32.59
2022-08-02T14:53:01.964Z,31.91
2022-08-02T14:55:28.469Z,31.55
2022-08-02T14:57:55.053Z,30.48
2022-08-02T15:00:21.743Z,29.63
2022-08-02T15:02:48.446Z,29.20
2022-08-02T15:05:15.032Z,28.86
2022-08-02T15:07:45.321Z,28.32
2022-08-02T15:10:14.449Z,27.97
2022-08-02T15:12:41.012Z,27.49
2022-08-02T15:15:08.176Z,27.43
2022-08-02T15:17:34.854Z,27.40
2022-08-02T15:20:09.394Z,27.25
2022-08-02T15:22:49.467Z,27.15
2022-08-02T15:25:16.424Z,26.97
2022-08-02T15:27:43.037Z,26.76
2022-08-02T15:30:10.076Z,26.49
2022-08-02T15:32:36.943Z,26.37
2022-08-02T15:35:03.989Z,26.31
2022-08-02T15:37:31.303Z,26.30
2022-08-02T15:39:59.430Z,26.35
2022-08-02T15:42:30.851Z,26.44
2022-08-02T15:44:58.207Z,26.68
2022-08-02T15:47:24.760Z,26.97
2022-08-02T15:49:51.555Z,27.69
2022-08-02T15:52:18.217Z,28.75
2022-08-02T15:54:44.924Z,28.95
2022-08-02T15:57:11.569Z,29.02
2022-08-02T15:59:38.308Z,29.48
2022-08-02T16:02:04.996Z,29.87
2022-08-02T16:04:32.311Z,29.94
2022-08-02T16:07:01.490Z,29.38
2022-08-02T16:09:28.771Z,29.40
2022-08-02T16:11:55.313Z,29.32
2022-08-02T16:14:21.962Z,28.97
2022-08-02T16:16:48.593Z,28.56
2022-08-02T16:19:37.549Z,28.47
2022-08-02T16:22:02.262Z,28.51
2022-08-02T16:24:28.872Z,29.16
2022-08-02T16:26:55.492Z,29.36
2022-08-02T16:29:22.196Z,29.43
2022-08-02T16:31:49.144Z,30.14
2022-08-02T16:34:17.354Z,30.39
2022-08-02T16:36:44.876Z,30.62
2022-08-02T16:39:11.816Z,30.53
2022-08-02T16:41:51.124Z,29.84
2022-08-02T16:44:29.196Z,28.91
2022-08-02T16:47:12.304Z,28.15
2022-08-02T16:50:07.507Z,27.46
2022-08-02T16:52:27.413Z,26.91
2022-08-02T16:54:54.063Z,26.49
2022-08-02T16:57:20.989Z,26.19
2022-08-02T16:59:57.973Z,25.97
2022-08-02T17:02:27.988Z,26.26
2022-08-02T17:04:55.453Z,26.42
2022-08-02T17:08:10.475Z,26.08
2022-08-02T17:10:10.105Z,25.86
2022-08-02T17:12:37.959Z,25.62
2022-08-02T17:16:08.385Z,25.46
2022-08-02T17:17:52.539Z,25.55
2022-08-02T17:20:20.080Z,26.02
2022-08-02T17:22:47.561Z,26.12
2022-08-02T17:25:16.515Z,25.71
2022-08-02T17:27:44.280Z,25.37
2022-08-02T17:30:12.595Z,25.13
2022-08-02T17:32:39.847Z,24.92
2022-08-02T17:35:12.918Z,24.71
2022-08-02T17:37:42.454Z,24.49
2022-08-02T17:40:09.910Z,24.27
2022-08-02T17:42:36.765Z,24.11
2022-08-02T17:45:16.298Z,23.94
2022-08-02T17:47:43.579Z,23.77
2022-08-02T17:50:30.333Z,23.58
2022-08-02T17:52:57.163Z,23.44
2022-08-02T17:55:24.017Z,23.30
2022-08-02T17:57:57.694Z,23.17
2022-08-02T18:00:33.840Z,23.04
2022-08-02T18:03:01.647Z,22.90
2022-08-02T18:05:40.449Z,22.76
2022-08-02T18:08:21.549Z,22.57
2022-08-02T18:10:49.831Z,22.39
2022-08-02T18:13:16.360Z,22.20
2022-08-02T18:15:45.716Z,22.02
2022-08-02T18:18:14.377Z,21.85
2022-08-02T18:20:41.732Z,21.66
2022-08-02T18:23:13.463Z,21.49
2022-08-02T18:25:45.643Z,21.29
2022-08-02T18:28:14.828Z,21.12
2022-08-02T18:30:42.141Z,20.96
2022-08-02T18:33:57.587Z,20.83
2022-08-02T18:35:56.015Z,20.68
2022-08-02T18:38:24.057Z,20.57
2022-08-02T18:40:51.412Z,20.46
2022-08-02T18:43:19.864Z,20.36
2022-08-02T18:46:05.287Z,20.27
2022-08-02T18:48:38.458Z,20.18
2022-08-02T18:51:06.354Z,20.09
2022-08-02T18:53:41.789Z,20.01
2022-08-02T18:56:19.337Z,19.92
2022-08-02T18:58:48.323Z,19.83
2022-08-02T19:01:31.341Z,19.76
2022-08-02T19:04:00.255Z,19.70
2022-08-02T19:06:28.850Z,19.66
2022-08-02T19:09:04.891Z,19.61
2022-08-02T19:11:35.188Z,19.57
2022-08-02T19:14:02.529Z,19.55
2022-08-02T19:16:37.812Z,19.48
2022-08-02T19:19:07.771Z,19.41
2022-08-02T19:22:16.318Z,19.31
2022-08-02T19:24:21.329Z,19.21
2022-08-02T19:26:52.095Z,19.14
2022-08-02T19:29:42.361Z,19.07
2022-08-02T19:32:41.617Z,18.99
2022-08-02T19:34:55.541Z,18.93
2022-08-02T19:37:22.157Z,18.86
2022-08-02T19:39:48.799Z,18.80
2022-08-02T19:42:17.170Z,18.73
2022-08-02T19:44:45.868Z,18.64
2022-08-02T19:47:19.334Z,18.61
2022-08-02T19:49:48.825Z,18.64
2022-08-02T19:52:21.066Z,18.62
2022-08-02T19:54:55.652Z,18.58
2022-08-02T19:57:24.945Z,18.53
2022-08-02T19:59:53.907Z,18.49
2022-08-02T20:02:21.255Z,18.45
2022-08-02T20:04:50.358Z,18.43
2022-08-02T20:07:50.011Z,18.36
2022-08-02T20:10:11.270Z,18.28
2022-08-02T20:12:41.859Z,18.20
2022-08-02T20:15:15.111Z,18.12
2022-08-02T20:17:58.676Z,18.05
2022-08-02T20:20:30.561Z,17.99
2022-08-02T20:22:57.419Z,17.91
2022-08-02T20:25:24.750Z,17.84
2022-08-02T20:27:56.307Z,17.77
2022-08-02T20:30:25.331Z,17.71
2022-08-02T20:32:53.890Z,17.63
2022-08-02T20:35:27.493Z,17.56
2022-08-02T20:38:00.577Z,17.50
2022-08-02T20:40:29.302Z,17.43
2022-08-02T20:42:56.326Z,17.35
2022-08-02T20:45:23.920Z,17.30
2022-08-02T20:47:54.755Z,17.24
2022-08-02T20:50:31.232Z,17.17
2022-08-02T20:53:00.473Z,17.11
2022-08-02T20:55:30.796Z,17.05
2022-08-02T20:58:00.891Z,16.99
2022-08-02T21:00:47.107Z,16.94
2022-08-02T21:03:15.886Z,16.92
2022-08-02T21:05:55.922Z,16.87
2022-08-02T21:08:23.330Z,16.82
2022-08-02T21:10:52.741Z,16.76
2022-08-02T21:13:22.567Z,16.70
2022-08-02T21:15:51.378Z,16.64
2022-08-02T21:18:28.734Z,16.61
2022-08-02T21:21:05.711Z,16.56
2022-08-02T21:23:36.370Z,16.53
2022-08-02T21:26:04.057Z,16.48
2022-08-02T21:28:34.952Z,16.40
2022-08-02T21:31:12.410Z,16.34
2022-08-02T21:33:56.949Z,16.28
2022-08-02T21:36:30.652Z,16.24
2022-08-02T21:38:59.969Z,16.24
2022-08-02T21:41:40.018Z,16.22
2022-08-02T21:44:15.980Z,16.20
2022-08-02T21:46:51.130Z,16.16
2022-08-02T21:49:20.563Z,16.13
2022-08-02T21:51:49.662Z,16.15
2022-08-02T21:54:21.329Z,16.13
2022-08-02T21:56:52.729Z,16.10
2022-08-02T21:59:25.934Z,16.07
2022-08-02T22:01:56.689Z,16.02
2022-08-02T22:04:24.446Z,15.99
2022-08-02T22:06:51.253Z,15.94
2022-08-02T22:09:44.351Z,15.90
2022-08-02T22:12:10.107Z,15.85
2022-08-02T22:14:39.696Z,15.81
2022-08-02T22:17:08.653Z,15.77
2022-08-02T22:19:36.218Z,15.74
2022-08-02T22:22:02.878Z,15.75
2022-08-02T22:24:29.756Z,15.77
2022-08-02T22:26:57.913Z,15.77
2022-08-02T22:29:25.079Z,15.73
2022-08-02T22:31:52.552Z,15.68
2022-08-02T22:34:37.182Z,15.60
2022-08-02T22:37:07.536Z,15.56
2022-08-02T22:39:34.545Z,15.51
2022-08-02T22:42:07.023Z,15.48
2022-08-02T22:44:35.651Z,15.47
2022-08-02T22:47:06.938Z,15.44
2022-08-02T22:49:38.595Z,15.42
2022-08-02T22:52:20.339Z,15.39
2022-08-02T22:54:47.784Z,15.36
2022-08-02T22:57:14.451Z,15.31
2022-08-02T22:59:41.448Z,15.30
2022-08-02T23:02:10.143Z,15.26
2022-08-02T23:04:37.762Z,15.23
2022-08-02T23:07:05.133Z,15.22
2022-08-02T23:09:35.366Z,15.17
2022-08-02T23:12:02.110Z,15.13
2022-08-02T23:14:28.864Z,15.11
2022-08-02T23:16:55.394Z,15.07
2022-08-02T23:19:22.044Z,15.03
2022-08-02T23:22:02.778Z,15.00
2022-08-02T23:24:31.410Z,14.96
2022-08-02T23:26:57.976Z,14.92
2022-08-02T23:29:24.663Z,14.90
2022-08-02T23:31:51.182Z,14.88
2022-08-02T23:34:19.548Z,14.89
2022-08-02T23:36:46.121Z,14.93
2022-08-02T23:39:12.954Z,14.98
2022-08-02T23:41:39.548Z,15.02
2022-08-02T23:44:14.838Z,15.07
2022-08-02T23:46:46.989Z,15.11
2022-08-02T23:49:14.634Z,15.16
2022-08-02T23:51:41.343Z,15.19
2022-08-02T23:54:08.411Z,15.23
2022-08-02T23:56:35.244Z,15.25
2022-08-02T23:59:01.800Z,15.28
